OEDCL LOAV-LOWL
Flight info
| Callsign | OEDCL |
|---|---|
| Flight time | 0h 53m |
| Altitude | 8000 |
| Route | MOVOS DCT TAGAS/N0116F080 DCT PEROL |
| Aircraft | C172/L-BDFGLORY/H |
Departure
| Time | 2026-05-07 16:41 |
|---|---|
| Airport | Vöslau-Kottingbrunn Airfield (LOAV) |
Arrival
| Time | 2026-05-07 17:35 |
|---|---|
| Airport | Linz-Hörsching Airport (LOWL) |
| Time | Latitude | Longitude | Altitude | Speed | Heading |
|---|---|---|---|---|---|
| 2026-05-07 16:25 | 47.96648 | 16.24877 | 774 ft | 0 kts | 93° |
| 2026-05-07 16:34 | 47.96650 | 16.24886 | 774 ft | 4 kts | 53° |
| 2026-05-07 16:35 | 47.96649 | 16.24855 | 775 ft | 9 kts | 195° |
| 2026-05-07 16:35 | 47.96597 | 16.24885 | 777 ft | 10 kts | 108° |
| 2026-05-07 16:35 | 47.96577 | 16.24987 | 777 ft | 11 kts | 107° |
| 2026-05-07 16:35 | 47.96554 | 16.25094 | 777 ft | 11 kts | 107° |
| 2026-05-07 16:36 | 47.96532 | 16.25207 | 777 ft | 12 kts | 107° |
| 2026-05-07 16:36 | 47.96508 | 16.25326 | 777 ft | 12 kts | 107° |
| 2026-05-07 16:36 | 47.96482 | 16.25448 | 777 ft | 12 kts | 105° |
| 2026-05-07 16:36 | 47.96457 | 16.25576 | 778 ft | 13 kts | 107° |
| 2026-05-07 16:37 | 47.96432 | 16.25700 | 778 ft | 12 kts | 107° |
| 2026-05-07 16:37 | 47.96407 | 16.25820 | 778 ft | 12 kts | 106° |
| 2026-05-07 16:37 | 47.96384 | 16.25934 | 779 ft | 11 kts | 107° |
| 2026-05-07 16:37 | 47.96362 | 16.26041 | 779 ft | 10 kts | 107° |
| 2026-05-07 16:38 | 47.96339 | 16.26144 | 779 ft | 10 kts | 115° |
| 2026-05-07 16:38 | 47.96291 | 16.26234 | 779 ft | 12 kts | 130° |
| 2026-05-07 16:38 | 47.96234 | 16.26335 | 779 ft | 14 kts | 130° |
| 2026-05-07 16:38 | 47.96203 | 16.26428 | 780 ft | 7 kts | 39° |
| 2026-05-07 16:39 | 47.96205 | 16.26429 | 780 ft | 0 kts | 39° |
| 2026-05-07 16:39 | 47.96219 | 16.26445 | 780 ft | 8 kts | 41° |
| 2026-05-07 16:40 | 47.96257 | 16.26461 | 782 ft | 0 kts | 310° |
| 2026-05-07 16:40 | 47.96339 | 16.26315 | 781 ft | 43 kts | 311° |
| 2026-05-07 16:40 | 47.96608 | 16.25833 | 824 ft | 72 kts | 303° |
| 2026-05-07 16:41 | 47.96925 | 16.25214 | 994 ft | 76 kts | 299° |
| 2026-05-07 16:41 | 47.97245 | 16.24577 | 1161 ft | 77 kts | 308° |
| 2026-05-07 16:41 | 47.97672 | 16.24105 | 1390 ft | 83 kts | 333° |
| 2026-05-07 16:41 | 47.98277 | 16.24116 | 1614 ft | 95 kts | 17° |
| 2026-05-07 16:42 | 47.98734 | 16.24830 | 1818 ft | 99 kts | 82° |
| 2026-05-07 16:42 | 47.98609 | 16.25717 | 2110 ft | 85 kts | 129° |
| 2026-05-07 16:42 | 47.98351 | 16.26492 | 2397 ft | 82 kts | 127° |
| 2026-05-07 16:42 | 47.98103 | 16.27248 | 2680 ft | 80 kts | 131° |
| 2026-05-07 16:43 | 47.97817 | 16.27974 | 2901 ft | 81 kts | 132° |
| 2026-05-07 16:43 | 47.97670 | 16.28829 | 3103 ft | 95 kts | 97° |
| 2026-05-07 16:43 | 47.97917 | 16.29808 | 3276 ft | 105 kts | 68° |
| 2026-05-07 16:43 | 47.98363 | 16.30672 | 3497 ft | 107 kts | 53° |
| 2026-05-07 16:44 | 47.98864 | 16.31504 | 3637 ft | 114 kts | 54° |
| 2026-05-07 16:44 | 47.99591 | 16.32036 | 3754 ft | 114 kts | 352° |
| 2026-05-07 16:44 | 48.00304 | 16.31837 | 4014 ft | 100 kts | 333° |
| 2026-05-07 16:44 | 48.00973 | 16.31526 | 4176 ft | 95 kts | 306° |
| 2026-05-07 16:45 | 48.01071 | 16.30740 | 4354 ft | 79 kts | 263° |
| 2026-05-07 16:45 | 48.01090 | 16.29918 | 4515 ft | 79 kts | 260° |
| 2026-05-07 16:45 | 48.01084 | 16.29101 | 4691 ft | 79 kts | 261° |
| 2026-05-07 16:45 | 48.01094 | 16.28278 | 4869 ft | 79 kts | 263° |
| 2026-05-07 16:46 | 48.01117 | 16.27464 | 5041 ft | 80 kts | 264° |
| 2026-05-07 16:46 | 48.01150 | 16.26640 | 5222 ft | 79 kts | 265° |
| 2026-05-07 16:46 | 48.01186 | 16.25827 | 5425 ft | 78 kts | 265° |
| 2026-05-07 16:46 | 48.01226 | 16.25013 | 5604 ft | 79 kts | 266° |
| 2026-05-07 16:47 | 48.01268 | 16.24204 | 5793 ft | 79 kts | 266° |
| 2026-05-07 16:47 | 48.01312 | 16.23389 | 5979 ft | 79 kts | 266° |
| 2026-05-07 16:47 | 48.01357 | 16.22566 | 6178 ft | 80 kts | 267° |
| 2026-05-07 16:47 | 48.01402 | 16.21732 | 6395 ft | 81 kts | 268° |
| 2026-05-07 16:48 | 48.01449 | 16.20895 | 6555 ft | 80 kts | 268° |
| 2026-05-07 16:48 | 48.01495 | 16.20067 | 6752 ft | 80 kts | 267° |
| 2026-05-07 16:48 | 48.01541 | 16.19238 | 6870 ft | 80 kts | 267° |
| 2026-05-07 16:48 | 48.01585 | 16.18402 | 6943 ft | 81 kts | 268° |
| 2026-05-07 16:49 | 48.01634 | 16.17571 | 7040 ft | 79 kts | 267° |
| 2026-05-07 16:49 | 48.01677 | 16.16752 | 7150 ft | 81 kts | 268° |
| 2026-05-07 16:49 | 48.01723 | 16.15905 | 7314 ft | 82 kts | 268° |
| 2026-05-07 16:49 | 48.01769 | 16.15059 | 7415 ft | 81 kts | 267° |
| 2026-05-07 16:50 | 48.01816 | 16.14224 | 7468 ft | 80 kts | 267° |
| 2026-05-07 16:50 | 48.01861 | 16.13392 | 7472 ft | 81 kts | 268° |
| 2026-05-07 16:50 | 48.01907 | 16.12551 | 7487 ft | 82 kts | 268° |
| 2026-05-07 16:50 | 48.01953 | 16.11701 | 7520 ft | 82 kts | 268° |
| 2026-05-07 16:51 | 48.01999 | 16.10862 | 7584 ft | 80 kts | 267° |
| 2026-05-07 16:51 | 48.02044 | 16.10034 | 7697 ft | 80 kts | 267° |
| 2026-05-07 16:51 | 48.02089 | 16.09203 | 7816 ft | 82 kts | 266° |
| 2026-05-07 16:51 | 48.02135 | 16.08361 | 7963 ft | 81 kts | 267° |
| 2026-05-07 16:52 | 48.02184 | 16.07460 | 8017 ft | 94 kts | 268° |
| 2026-05-07 16:52 | 48.02242 | 16.06439 | 8017 ft | 99 kts | 269° |
| 2026-05-07 16:52 | 48.02300 | 16.05428 | 8017 ft | 96 kts | 268° |
| 2026-05-07 16:52 | 48.02356 | 16.04416 | 8013 ft | 100 kts | 269° |
| 2026-05-07 16:53 | 48.02413 | 16.03359 | 8019 ft | 103 kts | 269° |
| 2026-05-07 16:53 | 48.02473 | 16.02287 | 8016 ft | 104 kts | 269° |
| 2026-05-07 16:53 | 48.02532 | 16.01229 | 8010 ft | 98 kts | 269° |
| 2026-05-07 16:53 | 48.02587 | 16.00238 | 8006 ft | 94 kts | 269° |
| 2026-05-07 16:54 | 48.02638 | 15.99289 | 7996 ft | 89 kts | 268° |
| 2026-05-07 16:54 | 48.02685 | 15.98388 | 7998 ft | 87 kts | 268° |
| 2026-05-07 16:54 | 48.02732 | 15.97480 | 7997 ft | 88 kts | 267° |
| 2026-05-07 16:54 | 48.02780 | 15.96585 | 8002 ft | 84 kts | 267° |
| 2026-05-07 16:55 | 48.02826 | 15.95723 | 7996 ft | 82 kts | 267° |
| 2026-05-07 16:55 | 48.02870 | 15.94883 | 7999 ft | 81 kts | 267° |
| 2026-05-07 16:55 | 48.02912 | 15.93988 | 8011 ft | 93 kts | 268° |
| 2026-05-07 16:55 | 48.02965 | 15.92981 | 8016 ft | 101 kts | 268° |
| 2026-05-07 16:56 | 48.03023 | 15.91912 | 8015 ft | 105 kts | 269° |
| 2026-05-07 16:56 | 48.03082 | 15.90815 | 8017 ft | 106 kts | 269° |
| 2026-05-07 16:56 | 48.03202 | 15.88594 | 8014 ft | 108 kts | 269° |
| 2026-05-07 16:57 | 48.03261 | 15.87474 | 8015 ft | 109 kts | 269° |
| 2026-05-07 16:57 | 48.03300 | 15.86728 | 8016 ft | 109 kts | 269° |
| 2026-05-07 16:57 | 48.03360 | 15.85594 | 8014 ft | 110 kts | 269° |
| 2026-05-07 16:57 | 48.03440 | 15.84077 | 8017 ft | 111 kts | 269° |
| 2026-05-07 16:58 | 48.03500 | 15.82926 | 8017 ft | 111 kts | 269° |
| 2026-05-07 16:58 | 48.03560 | 15.81785 | 8015 ft | 110 kts | 269° |
| 2026-05-07 16:58 | 48.03600 | 15.81017 | 8019 ft | 110 kts | 269° |
| 2026-05-07 16:58 | 48.03658 | 15.79882 | 8016 ft | 109 kts | 269° |
| 2026-05-07 16:59 | 48.03716 | 15.78765 | 8016 ft | 109 kts | 269° |
| 2026-05-07 16:59 | 48.03774 | 15.77638 | 8015 ft | 109 kts | 269° |
| 2026-05-07 16:59 | 48.03832 | 15.76511 | 8017 ft | 109 kts | 269° |
| 2026-05-07 16:59 | 48.03890 | 15.75394 | 8016 ft | 107 kts | 269° |
| 2026-05-07 17:00 | 48.03947 | 15.74281 | 8016 ft | 107 kts | 269° |
| 2026-05-07 17:00 | 48.04004 | 15.73166 | 8016 ft | 108 kts | 269° |
| 2026-05-07 17:00 | 48.04060 | 15.72043 | 8018 ft | 109 kts | 269° |
| 2026-05-07 17:00 | 48.04118 | 15.70906 | 8017 ft | 111 kts | 269° |
| 2026-05-07 17:01 | 48.04177 | 15.69758 | 8020 ft | 111 kts | 269° |
| 2026-05-07 17:01 | 48.04236 | 15.68605 | 8017 ft | 110 kts | 269° |
| 2026-05-07 17:01 | 48.04294 | 15.67482 | 8020 ft | 109 kts | 269° |
| 2026-05-07 17:01 | 48.04351 | 15.66353 | 8013 ft | 108 kts | 269° |
| 2026-05-07 17:02 | 48.04422 | 15.65243 | 8014 ft | 107 kts | 275° |
| 2026-05-07 17:02 | 48.04618 | 15.64157 | 8021 ft | 109 kts | 278° |
| 2026-05-07 17:02 | 48.04809 | 15.63059 | 8015 ft | 109 kts | 278° |
| 2026-05-07 17:02 | 48.05001 | 15.61962 | 8019 ft | 109 kts | 278° |
| 2026-05-07 17:03 | 48.05194 | 15.60856 | 8017 ft | 110 kts | 278° |
| 2026-05-07 17:03 | 48.05386 | 15.59759 | 8009 ft | 111 kts | 278° |
| 2026-05-07 17:03 | 48.05580 | 15.58649 | 8015 ft | 110 kts | 278° |
| 2026-05-07 17:03 | 48.05772 | 15.57551 | 8008 ft | 109 kts | 278° |
| 2026-05-07 17:04 | 48.05961 | 15.56469 | 8010 ft | 106 kts | 277° |
| 2026-05-07 17:04 | 48.06146 | 15.55403 | 8009 ft | 105 kts | 277° |
| 2026-05-07 17:04 | 48.06331 | 15.54339 | 8007 ft | 106 kts | 278° |
| 2026-05-07 17:04 | 48.06516 | 15.53279 | 8010 ft | 105 kts | 278° |
| 2026-05-07 17:05 | 48.06701 | 15.52214 | 8015 ft | 107 kts | 278° |
| 2026-05-07 17:05 | 48.06889 | 15.51131 | 8015 ft | 108 kts | 278° |
| 2026-05-07 17:05 | 48.07077 | 15.50053 | 8017 ft | 109 kts | 278° |
| 2026-05-07 17:05 | 48.07267 | 15.48960 | 8020 ft | 109 kts | 278° |
| 2026-05-07 17:06 | 48.07459 | 15.47856 | 8012 ft | 109 kts | 278° |
| 2026-05-07 17:06 | 48.07649 | 15.46762 | 8010 ft | 107 kts | 278° |
| 2026-05-07 17:06 | 48.07833 | 15.45699 | 8003 ft | 105 kts | 278° |
| 2026-05-07 17:06 | 48.08016 | 15.44639 | 8003 ft | 106 kts | 278° |
| 2026-05-07 17:07 | 48.08200 | 15.43575 | 8009 ft | 106 kts | 278° |
| 2026-05-07 17:07 | 48.08387 | 15.42489 | 8013 ft | 109 kts | 278° |
| 2026-05-07 17:07 | 48.08580 | 15.41376 | 8016 ft | 111 kts | 278° |
| 2026-05-07 17:07 | 48.08776 | 15.40254 | 8021 ft | 112 kts | 278° |
| 2026-05-07 17:08 | 48.08968 | 15.39144 | 8012 ft | 111 kts | 278° |
| 2026-05-07 17:08 | 48.09161 | 15.38026 | 8016 ft | 111 kts | 278° |
| 2026-05-07 17:08 | 48.09353 | 15.36914 | 8017 ft | 110 kts | 278° |
| 2026-05-07 17:08 | 48.09544 | 15.35808 | 8011 ft | 110 kts | 279° |
| 2026-05-07 17:09 | 48.09734 | 15.34704 | 8015 ft | 109 kts | 279° |
| 2026-05-07 17:09 | 48.09923 | 15.33605 | 8014 ft | 109 kts | 279° |
| 2026-05-07 17:09 | 48.10112 | 15.32504 | 8018 ft | 109 kts | 278° |
| 2026-05-07 17:09 | 48.10303 | 15.31395 | 7999 ft | 111 kts | 278° |
| 2026-05-07 17:10 | 48.10495 | 15.30280 | 8004 ft | 109 kts | 279° |
| 2026-05-07 17:10 | 48.10684 | 15.29175 | 8004 ft | 110 kts | 279° |
| 2026-05-07 17:10 | 48.10873 | 15.28080 | 8002 ft | 107 kts | 278° |
| 2026-05-07 17:10 | 48.11057 | 15.27009 | 8004 ft | 106 kts | 278° |
| 2026-05-07 17:11 | 48.11238 | 15.25951 | 8006 ft | 104 kts | 278° |
| 2026-05-07 17:11 | 48.11417 | 15.24904 | 8009 ft | 103 kts | 278° |
| 2026-05-07 17:11 | 48.11595 | 15.23862 | 8010 ft | 103 kts | 278° |
| 2026-05-07 17:11 | 48.11772 | 15.22825 | 8011 ft | 103 kts | 278° |
| 2026-05-07 17:12 | 48.11949 | 15.21788 | 8010 ft | 104 kts | 279° |
| 2026-05-07 17:12 | 48.12129 | 15.20738 | 8014 ft | 105 kts | 278° |
| 2026-05-07 17:12 | 48.12309 | 15.19685 | 8004 ft | 104 kts | 278° |
| 2026-05-07 17:12 | 48.12482 | 15.18669 | 8010 ft | 102 kts | 278° |
| 2026-05-07 17:13 | 48.12658 | 15.17637 | 8009 ft | 103 kts | 278° |
| 2026-05-07 17:13 | 48.12835 | 15.16598 | 8012 ft | 103 kts | 278° |
| 2026-05-07 17:13 | 48.13013 | 15.15552 | 8007 ft | 104 kts | 279° |
| 2026-05-07 17:13 | 48.13193 | 15.14501 | 8014 ft | 104 kts | 278° |
| 2026-05-07 17:14 | 48.13373 | 15.13442 | 8014 ft | 105 kts | 278° |
| 2026-05-07 17:14 | 48.13554 | 15.12380 | 8019 ft | 105 kts | 278° |
| 2026-05-07 17:14 | 48.13735 | 15.11316 | 8015 ft | 105 kts | 278° |
| 2026-05-07 17:14 | 48.13916 | 15.10256 | 8022 ft | 105 kts | 278° |
| 2026-05-07 17:15 | 48.14097 | 15.09184 | 8015 ft | 107 kts | 279° |
| 2026-05-07 17:15 | 48.14280 | 15.08102 | 8021 ft | 108 kts | 279° |
| 2026-05-07 17:15 | 48.14466 | 15.07002 | 8027 ft | 111 kts | 279° |
| 2026-05-07 17:15 | 48.14659 | 15.05866 | 8028 ft | 114 kts | 279° |
| 2026-05-07 17:16 | 48.14852 | 15.04731 | 8029 ft | 115 kts | 279° |
| 2026-05-07 17:16 | 48.15048 | 15.03573 | 8033 ft | 115 kts | 279° |
| 2026-05-07 17:16 | 48.15245 | 15.02410 | 8037 ft | 116 kts | 279° |
| 2026-05-07 17:16 | 48.15445 | 15.01232 | 8035 ft | 117 kts | 279° |
| 2026-05-07 17:17 | 48.15645 | 15.00049 | 8033 ft | 117 kts | 279° |
| 2026-05-07 17:17 | 48.15844 | 14.98872 | 8032 ft | 117 kts | 279° |
| 2026-05-07 17:17 | 48.16042 | 14.97695 | 8031 ft | 116 kts | 279° |
| 2026-05-07 17:17 | 48.16240 | 14.96523 | 8030 ft | 116 kts | 280° |
| 2026-05-07 17:18 | 48.16439 | 14.95341 | 8030 ft | 117 kts | 280° |
| 2026-05-07 17:18 | 48.16638 | 14.94161 | 8030 ft | 116 kts | 280° |
| 2026-05-07 17:18 | 48.16837 | 14.92979 | 8032 ft | 118 kts | 279° |
| 2026-05-07 17:18 | 48.17034 | 14.91804 | 8033 ft | 118 kts | 280° |
| 2026-05-07 17:19 | 48.17234 | 14.90615 | 8030 ft | 117 kts | 280° |
| 2026-05-07 17:19 | 48.17432 | 14.89432 | 8032 ft | 117 kts | 280° |
| 2026-05-07 17:19 | 48.17632 | 14.88243 | 8032 ft | 118 kts | 280° |
| 2026-05-07 17:19 | 48.17831 | 14.87057 | 8028 ft | 116 kts | 279° |
| 2026-05-07 17:20 | 48.18029 | 14.85879 | 8035 ft | 117 kts | 280° |
| 2026-05-07 17:20 | 48.18227 | 14.84685 | 8033 ft | 119 kts | 280° |
| 2026-05-07 17:20 | 48.18428 | 14.83489 | 8033 ft | 118 kts | 280° |
| 2026-05-07 17:20 | 48.18626 | 14.82313 | 8033 ft | 118 kts | 280° |
| 2026-05-07 17:21 | 48.18826 | 14.81114 | 8029 ft | 119 kts | 280° |
| 2026-05-07 17:21 | 48.19025 | 14.79918 | 8029 ft | 118 kts | 280° |
| 2026-05-07 17:21 | 48.19224 | 14.78728 | 8030 ft | 117 kts | 280° |
| 2026-05-07 17:21 | 48.19421 | 14.77543 | 8029 ft | 117 kts | 280° |
| 2026-05-07 17:22 | 48.19626 | 14.76316 | 7901 ft | 125 kts | 281° |
| 2026-05-07 17:22 | 48.19840 | 14.75054 | 7762 ft | 125 kts | 281° |
| 2026-05-07 17:22 | 48.20053 | 14.73783 | 7616 ft | 126 kts | 281° |
| 2026-05-07 17:22 | 48.20266 | 14.72505 | 7469 ft | 126 kts | 281° |
| 2026-05-07 17:23 | 48.20479 | 14.71227 | 7321 ft | 126 kts | 281° |
| 2026-05-07 17:23 | 48.20690 | 14.69953 | 7174 ft | 126 kts | 281° |
| 2026-05-07 17:23 | 48.20901 | 14.68681 | 7029 ft | 126 kts | 281° |
| 2026-05-07 17:23 | 48.21113 | 14.67404 | 6887 ft | 127 kts | 281° |
| 2026-05-07 17:24 | 48.21325 | 14.66118 | 6742 ft | 127 kts | 281° |
| 2026-05-07 17:24 | 48.21540 | 14.64827 | 6579 ft | 129 kts | 281° |
| 2026-05-07 17:24 | 48.21759 | 14.63511 | 6364 ft | 131 kts | 281° |
| 2026-05-07 17:24 | 48.21979 | 14.62188 | 6114 ft | 131 kts | 281° |
| 2026-05-07 17:25 | 48.22198 | 14.60863 | 5862 ft | 131 kts | 281° |
| 2026-05-07 17:25 | 48.22419 | 14.59535 | 5605 ft | 131 kts | 281° |
| 2026-05-07 17:25 | 48.22635 | 14.58227 | 5364 ft | 130 kts | 281° |
| 2026-05-07 17:25 | 48.22848 | 14.56932 | 5192 ft | 126 kts | 280° |
| 2026-05-07 17:26 | 48.23053 | 14.55681 | 5033 ft | 122 kts | 280° |
| 2026-05-07 17:26 | 48.23253 | 14.54455 | 4867 ft | 120 kts | 280° |
| 2026-05-07 17:26 | 48.23452 | 14.53240 | 4708 ft | 120 kts | 280° |
| 2026-05-07 17:26 | 48.23650 | 14.52030 | 4549 ft | 119 kts | 280° |
| 2026-05-07 17:27 | 48.23849 | 14.50814 | 4390 ft | 119 kts | 281° |
| 2026-05-07 17:27 | 48.24047 | 14.49607 | 4233 ft | 119 kts | 280° |
| 2026-05-07 17:27 | 48.24245 | 14.48398 | 4077 ft | 119 kts | 281° |
| 2026-05-07 17:27 | 48.24271 | 14.47238 | 4030 ft | 105 kts | 263° |
| 2026-05-07 17:28 | 48.24248 | 14.46207 | 4043 ft | 96 kts | 265° |
| 2026-05-07 17:28 | 48.24225 | 14.45228 | 4039 ft | 92 kts | 265° |
| 2026-05-07 17:28 | 48.24198 | 14.44284 | 4037 ft | 90 kts | 263° |
| 2026-05-07 17:28 | 48.24164 | 14.43346 | 4037 ft | 89 kts | 264° |
| 2026-05-07 17:29 | 48.24132 | 14.42410 | 3997 ft | 92 kts | 265° |
| 2026-05-07 17:29 | 48.24099 | 14.41419 | 3881 ft | 97 kts | 265° |
| 2026-05-07 17:29 | 48.24066 | 14.40388 | 3747 ft | 102 kts | 264° |
| 2026-05-07 17:29 | 48.24027 | 14.39272 | 3604 ft | 111 kts | 265° |
| 2026-05-07 17:30 | 48.23988 | 14.38087 | 3458 ft | 116 kts | 266° |
| 2026-05-07 17:30 | 48.23947 | 14.36866 | 3304 ft | 117 kts | 264° |
| 2026-05-07 17:30 | 48.23906 | 14.35648 | 3148 ft | 117 kts | 265° |
| 2026-05-07 17:30 | 48.23862 | 14.34435 | 2989 ft | 117 kts | 265° |
| 2026-05-07 17:31 | 48.23823 | 14.33208 | 2830 ft | 117 kts | 265° |
| 2026-05-07 17:31 | 48.23779 | 14.31991 | 2678 ft | 117 kts | 265° |
| 2026-05-07 17:31 | 48.23738 | 14.30773 | 2522 ft | 113 kts | 265° |
| 2026-05-07 17:31 | 48.23703 | 14.29683 | 2354 ft | 96 kts | 265° |
| 2026-05-07 17:32 | 48.23669 | 14.28751 | 2208 ft | 83 kts | 268° |
| 2026-05-07 17:32 | 48.23640 | 14.27980 | 2094 ft | 68 kts | 265° |
| 2026-05-07 17:32 | 48.23612 | 14.27256 | 1975 ft | 72 kts | 267° |
| 2026-05-07 17:32 | 48.23593 | 14.26743 | 1887 ft | 76 kts | 267° |
| 2026-05-07 17:33 | 48.23558 | 14.25708 | 1712 ft | 72 kts | 267° |
| 2026-05-07 17:33 | 48.23534 | 14.24982 | 1600 ft | 68 kts | 268° |
| 2026-05-07 17:33 | 48.23503 | 14.24274 | 1501 ft | 68 kts | 267° |
| 2026-05-07 17:33 | 48.23470 | 14.23547 | 1415 ft | 72 kts | 270° |
| 2026-05-07 17:34 | 48.23452 | 14.22793 | 1307 ft | 72 kts | 270° |
| 2026-05-07 17:34 | 48.23440 | 14.22052 | 1211 ft | 70 kts | 267° |
| 2026-05-07 17:34 | 48.23410 | 14.21327 | 1107 ft | 68 kts | 268° |
| 2026-05-07 17:34 | 48.23389 | 14.20625 | 1013 ft | 67 kts | 268° |
| 2026-05-07 17:35 | 48.23365 | 14.19956 | 968 ft | 57 kts | 269° |
| 2026-05-07 17:35 | 48.23349 | 14.19483 | 976 ft | 36 kts | 265° |
| 2026-05-07 17:35 | 48.23338 | 14.19171 | 974 ft | 25 kts | 266° |
| 2026-05-07 17:35 | 48.23330 | 14.18933 | 974 ft | 21 kts | 267° |
| 2026-05-07 17:36 | 48.23385 | 14.18823 | 974 ft | 13 kts | 355° |
| 2026-05-07 17:36 | 48.23459 | 14.18818 | 980 ft | 9 kts | 356° |
| 2026-05-07 17:36 | 48.23515 | 14.18813 | 979 ft | 7 kts | 358° |
| 2026-05-07 17:36 | 48.23579 | 14.18808 | 987 ft | 12 kts | 356° |
| 2026-05-07 17:37 | 48.23695 | 14.18798 | 975 ft | 18 kts | 357° |
| 2026-05-07 17:37 | 48.23809 | 14.18788 | 973 ft | 14 kts | 354° |
| 2026-05-07 17:37 | 48.23850 | 14.18785 | 971 ft | 0 kts | 16° |
| 2026-05-07 17:37 | 48.23862 | 14.18785 | 969 ft | 4 kts | 5° |
| 2026-05-07 17:38 | 48.23874 | 14.18803 | 970 ft | 3 kts | 87° |
| 2026-05-07 17:38 | 48.23874 | 14.18804 | 968 ft | 0 kts | 88° |